Time;durP1;ratioP1;P1;durP2;ratioP2;P2;SDS_P1;SDS_P2;PMS_P1;PMS_P2;Temp;Humidity;BMP_temperature;BMP_pressure;BME280_temperature;BME280_humidity;BME280_pressure;Samples;Min_cycle;Max_cycle;Signal;HPM_P1;HPM_P2
2021/03/31 00:01:28;;;;;;;5.13;2.50;;;13.70;99.90;;;;;;4964467;28;20294;-71
2021/03/31 00:03:54;;;;;;;2.50;2.20;;;13.70;99.90;;;;;;4959370;28;20329;-71
2021/03/31 00:06:21;;;;;;;3.43;2.63;;;13.70;99.90;;;;;;4964474;28;20239;-72
2021/03/31 00:08:47;;;;;;;5.87;3.53;;;13.70;99.90;;;;;;4963216;28;20202;-72
2021/03/31 00:11:14;;;;;;;3.60;2.70;;;13.60;99.90;;;;;;4961945;28;20221;-71
2021/03/31 00:13:40;;;;;;;3.73;2.43;;;13.60;99.90;;;;;;4952376;28;20202;-70
2021/03/31 00:16:08;;;;;;;3.07;2.40;;;13.60;99.90;;;;;;4956389;28;20315;-70
2021/03/31 00:18:34;;;;;;;3.43;2.10;;;13.60;99.90;;;;;;4954028;28;20194;-71
2021/03/31 00:21:01;;;;;;;3.27;2.03;;;13.60;99.90;;;;;;4958336;28;20239;-70
2021/03/31 00:23:29;;;;;;;2.37;1.90;;;13.50;99.90;;;;;;4952134;28;20197;-71
2021/03/31 00:25:57;;;;;;;3.10;2.40;;;13.60;99.90;;;;;;4955368;28;20516;-70
2021/03/31 00:28:24;;;;;;;5.33;2.30;;;13.50;99.90;;;;;;4947521;28;20198;-70
2021/03/31 00:30:51;;;;;;;3.30;2.30;;;13.50;99.90;;;;;;4954340;28;20708;-71
2021/03/31 00:33:19;;;;;;;2.67;2.20;;;13.50;99.90;;;;;;4970457;28;20725;-70
2021/03/31 00:35:45;;;;;;;2.77;2.03;;;13.50;99.90;;;;;;4963624;28;20764;-70
2021/03/31 00:38:13;;;;;;;4.17;2.60;;;13.50;99.90;;;;;;4951072;28;20284;-72
2021/03/31 00:40:41;;;;;;;2.70;2.10;;;13.50;99.90;;;;;;4951377;29;20622;-71
2021/03/31 00:43:09;;;;;;;3.73;2.40;;;13.50;99.90;;;;;;4949603;28;20276;-72
2021/03/31 00:45:35;;;;;;;3.13;2.20;;;13.50;99.90;;;;;;4949719;29;20221;-72
2021/03/31 00:48:02;;;;;;;2.57;2.37;;;13.40;99.90;;;;;;4960823;28;20280;-71
2021/03/31 00:50:30;;;;;;;3.40;2.50;;;13.40;99.90;;;;;;4959322;28;20207;-71
2021/03/31 00:52:58;;;;;;;3.13;2.30;;;13.40;99.90;;;;;;4952829;28;20194;-71
2021/03/31 00:55:28;;;;;;;2.40;2.00;;;13.40;99.90;;;;;;4954779;28;20293;-71
2021/03/31 00:57:56;;;;;;;3.10;2.10;;;13.30;99.90;;;;;;4956152;28;20673;-70
2021/03/31 01:00:23;;;;;;;2.30;2.10;;;13.40;99.90;;;;;;4954488;28;20571;-71
2021/03/31 01:02:50;;;;;;;4.50;2.43;;;13.40;99.90;;;;;;4961246;28;20198;-71
2021/03/31 01:05:18;;;;;;;2.77;2.07;;;13.30;99.90;;;;;;4963117;28;20225;-71
2021/03/31 01:07:46;;;;;;;3.50;2.40;;;13.30;99.90;;;;;;4960005;28;20689;-71
2021/03/31 01:10:14;;;;;;;12.03;3.67;;;13.30;99.90;;;;;;4954391;29;20273;-72
2021/03/31 01:12:58;;;;;;;116.00;19.60;;;13.30;99.90;;;;;;4958173;28;21082;-72
2021/03/31 01:15:30;;;;;;;57.60;10.10;;;13.30;99.90;;;;;;4953052;29;20310;-71
2021/03/31 01:18:04;;;;;;;11.10;4.10;;;13.30;99.90;;;;;;4953419;28;20653;-72
2021/03/31 01:21:12;;;;;;;6.70;3.03;;;13.30;99.90;;;;;;4959809;28;20198;-72
2021/03/31 01:24:11;;;;;;;5.30;2.50;;;13.30;99.90;;;;;;4952801;29;20197;-73
2021/03/31 01:26:46;;;;;;;3.53;2.53;;;13.20;99.90;;;;;;4953784;28;20201;-71
2021/03/31 01:29:33;;;;;;;3.10;2.23;;;13.20;99.90;;;;;;4943886;28;20849;-72
2021/03/31 01:32:14;;;;;;;2.50;2.27;;;13.20;99.90;;;;;;4955675;28;20646;-71
2021/03/31 01:34:47;;;;;;;2.87;2.20;;;13.20;99.90;;;;;;4968187;28;20197;-72
2021/03/31 01:37:20;;;;;;;2.47;2.10;;;13.20;99.90;;;;;;4959602;28;20208;-71
2021/03/31 01:39:48;;;;;;;3.50;2.37;;;13.20;99.90;;;;;;4956826;28;20680;-71
2021/03/31 01:42:17;;;;;;;2.13;2.00;;;13.20;99.90;;;;;;4955193;28;20309;-71
2021/03/31 01:44:45;;;;;;;2.23;2.00;;;13.10;99.90;;;;;;4954441;28;20614;-71
2021/03/31 01:47:14;;;;;;;5.33;2.50;;;13.10;99.90;;;;;;4960273;28;20583;-71
2021/03/31 01:49:41;;;;;;;2.53;2.33;;;13.10;99.90;;;;;;4964317;28;20228;-70
2021/03/31 01:52:10;;;;;;;2.87;2.17;;;13.00;99.90;;;;;;4972255;28;20197;-70
2021/03/31 01:54:41;;;;;;;2.43;2.00;;;13.00;99.90;;;;;;4966742;28;20654;-70
2021/03/31 01:57:09;;;;;;;5.23;2.97;;;13.00;99.90;;;;;;4958777;28;20224;-71
2021/03/31 01:59:37;;;;;;;15.80;4.53;;;12.90;99.90;;;;;;4962649;28;20221;-70
2021/03/31 02:02:06;;;;;;;61.00;8.87;;;12.90;99.90;;;;;;4954832;29;20575;-71
2021/03/31 02:04:33;;;;;;;13.93;4.40;;;12.80;99.90;;;;;;4964903;28;20186;-71
2021/03/31 02:07:04;;;;;;;5.53;2.80;;;12.80;99.90;;;;;;4968361;28;20255;-70
2021/03/31 02:09:33;;;;;;;7.03;2.97;;;12.80;99.90;;;;;;4962003;28;20200;-71
2021/03/31 02:12:02;;;;;;;3.30;2.67;;;12.80;99.90;;;;;;4964113;28;20291;-71
2021/03/31 02:14:32;;;;;;;3.67;2.93;;;12.70;99.90;;;;;;4954603;28;20670;-71
2021/03/31 02:16:59;;;;;;;14.03;5.20;;;12.60;99.90;;;;;;4961164;28;20233;-71
2021/03/31 02:19:26;;;;;;;13.50;5.37;;;12.60;99.90;;;;;;4958579;28;20189;-71
2021/03/31 02:21:53;;;;;;;15.50;5.70;;;12.60;99.90;;;;;;4957550;28;20251;-70
2021/03/31 02:24:21;;;;;;;11.77;4.87;;;12.60;99.90;;;;;;4957725;28;20194;-71
2021/03/31 02:26:49;;;;;;;10.93;4.83;;;12.50;99.90;;;;;;4952355;29;20304;-71
2021/03/31 02:29:16;;;;;;;9.37;4.13;;;12.50;99.90;;;;;;4953328;28;20212;-70
2021/03/31 02:31:44;;;;;;;7.33;4.00;;;12.40;99.90;;;;;;4959090;28;20757;-70
2021/03/31 02:34:14;;;;;;;6.87;3.83;;;12.40;99.90;;;;;;4963238;28;20263;-70
2021/03/31 02:36:41;;;;;;;5.80;3.87;;;12.30;99.90;;;;;;4956194;28;20216;-70
2021/03/31 02:39:09;;;;;;;6.93;4.20;;;12.30;99.90;;;;;;4969179;28;20201;-69
2021/03/31 02:41:39;;;;;;;6.30;3.40;;;12.20;99.90;;;;;;4963798;28;20292;-70
2021/03/31 02:44:09;;;;;;;5.03;3.37;;;12.20;99.90;;;;;;4952714;29;20283;-71
2021/03/31 02:46:37;;;;;;;6.17;3.30;;;12.10;99.90;;;;;;4967114;28;20207;-71
2021/03/31 02:49:06;;;;;;;6.80;3.47;;;12.20;99.90;;;;;;4964673;28;20665;-70
2021/03/31 02:51:35;;;;;;;5.10;3.67;;;12.10;99.90;;;;;;4964412;28;20288;-71
2021/03/31 02:54:02;;;;;;;3.57;3.13;;;12.00;99.90;;;;;;4952876;28;20231;-71
2021/03/31 02:56:30;;;;;;;3.67;3.00;;;11.90;99.90;;;;;;4958314;28;20585;-71
2021/03/31 02:58:59;;;;;;;4.27;2.80;;;11.90;99.90;;;;;;4957654;28;20208;-70
2021/03/31 03:01:27;;;;;;;3.33;2.57;;;11.90;99.90;;;;;;4964421;28;20530;-71
2021/03/31 03:03:54;;;;;;;2.63;2.43;;;11.80;99.90;;;;;;4964938;28;20195;-70
2021/03/31 03:06:21;;;;;;;3.23;2.87;;;11.80;99.90;;;;;;4966274;28;20279;-71
2021/03/31 03:08:48;;;;;;;3.73;2.90;;;11.80;99.90;;;;;;4955871;28;20214;-71
2021/03/31 03:11:15;;;;;;;5.07;3.43;;;11.70;99.90;;;;;;4957033;28;20196;-72
2021/03/31 03:13:42;;;;;;;4.03;3.10;;;11.70;99.90;;;;;;4949332;28;20243;-71
2021/03/31 03:16:10;;;;;;;4.17;3.10;;;11.60;99.90;;;;;;4954693;28;20238;-70
2021/03/31 03:18:37;;;;;;;5.10;3.40;;;11.60;99.90;;;;;;4947563;28;20201;-70
2021/03/31 03:21:05;;;;;;;3.80;3.00;;;11.50;99.90;;;;;;4957308;28;20236;-71
2021/03/31 03:23:32;;;;;;;4.77;3.60;;;11.50;99.90;;;;;;4948922;28;20278;-71
2021/03/31 03:26:00;;;;;;;8.80;5.03;;;11.60;99.90;;;;;;4947349;28;20308;-70
2021/03/31 03:28:29;;;;;;;9.27;5.60;;;11.50;99.90;;;;;;4947113;28;20547;-72
2021/03/31 03:30:57;;;;;;;9.97;5.30;;;11.50;99.90;;;;;;4948367;29;20261;-71
2021/03/31 03:33:25;;;;;;;8.87;5.87;;;11.40;99.90;;;;;;4953503;28;20195;-70
2021/03/31 03:35:53;;;;;;;8.47;6.33;;;11.40;99.90;;;;;;4962788;28;20285;-71
2021/03/31 03:38:22;;;;;;;8.00;6.30;;;11.30;99.90;;;;;;4954092;28;20266;-71
2021/03/31 03:40:49;;;;;;;10.50;5.53;;;11.20;99.90;;;;;;4964244;28;20567;-71
2021/03/31 03:43:16;;;;;;;7.67;5.47;;;11.20;99.90;;;;;;4956496;28;20203;-71
2021/03/31 03:45:44;;;;;;;7.37;5.63;;;11.10;99.90;;;;;;4969542;28;20228;-71
2021/03/31 03:48:11;;;;;;;5.43;4.37;;;11.10;99.90;;;;;;4954279;28;20196;-71
2021/03/31 03:50:38;;;;;;;5.10;4.10;;;11.10;99.90;;;;;;4957296;28;20187;-69
2021/03/31 03:53:05;;;;;;;5.87;4.07;;;11.00;99.90;;;;;;4963249;28;20316;-67
2021/03/31 03:55:34;;;;;;;5.80;3.60;;;11.00;99.90;;;;;;4965506;28;20203;-68
2021/03/31 03:58:06;;;;;;;4.30;3.30;;;11.00;99.90;;;;;;4959269;28;20625;-67
2021/03/31 04:00:33;;;;;;;4.23;3.33;;;11.00;99.90;;;;;;4950252;29;20198;-68
2021/03/31 04:02:59;;;;;;;6.47;3.37;;;10.90;99.90;;;;;;4947024;28;20199;-67
2021/03/31 04:05:27;;;;;;;3.47;3.00;;;10.80;99.90;;;;;;4947372;28;20642;-68
2021/03/31 04:07:54;;;;;;;5.37;2.97;;;10.80;99.90;;;;;;4947988;28;20200;-68
2021/03/31 04:10:24;;;;;;;3.53;2.90;;;10.80;99.90;;;;;;4959714;28;20263;-68
2021/03/31 04:12:52;;;;;;;4.20;2.97;;;10.80;99.90;;;;;;4951790;28;20541;-68
2021/03/31 04:15:20;;;;;;;5.17;3.13;;;10.70;99.90;;;;;;4956340;28;20204;-68
2021/03/31 04:17:48;;;;;;;4.97;2.90;;;10.70;99.90;;;;;;4951656;28;20223;-67
2021/03/31 04:20:18;;;;;;;3.67;3.17;;;10.70;99.90;;;;;;4964972;28;20581;-68
2021/03/31 04:22:46;;;;;;;6.20;3.43;;;10.60;99.90;;;;;;4964747;28;20224;-70
2021/03/31 04:25:15;;;;;;;4.83;3.13;;;10.50;99.90;;;;;;4960097;28;20312;-68
2021/03/31 04:27:43;;;;;;;8.90;3.70;;;10.60;99.90;;;;;;4945389;28;20222;-69
2021/03/31 04:30:12;;;;;;;8.90;3.57;;;10.60;99.90;;;;;;4957975;28;20750;-69
2021/03/31 04:32:40;;;;;;;14.00;5.90;;;10.60;99.90;;;;;;4961161;28;20288;-69
2021/03/31 04:35:08;;;;;;;14.87;5.87;;;10.50;99.90;;;;;;4964879;28;20267;-69
2021/03/31 04:37:34;;;;;;;14.50;6.13;;;10.50;99.90;;;;;;4964759;28;20222;-69
2021/03/31 04:40:04;;;;;;;13.20;5.60;;;10.50;99.90;;;;;;4962249;28;20239;-67
2021/03/31 04:42:30;;;;;;;11.43;5.20;;;10.40;99.90;;;;;;4966571;28;20225;-68
2021/03/31 04:44:58;;;;;;;12.47;5.07;;;10.40;99.90;;;;;;4966191;28;20769;-68
2021/03/31 04:47:24;;;;;;;8.97;3.73;;;10.40;99.90;;;;;;4966642;28;20199;-68
2021/03/31 04:49:51;;;;;;;8.03;3.87;;;10.40;99.90;;;;;;4965317;28;20224;-68
2021/03/31 04:52:17;;;;;;;10.63;4.77;;;10.50;99.90;;;;;;4961525;28;20232;-70
2021/03/31 04:54:43;;;;;;;14.37;5.63;;;10.50;99.90;;;;;;4955798;28;20278;-69
2021/03/31 04:57:10;;;;;;;12.80;5.10;;;10.40;99.90;;;;;;4960699;28;20227;-69
2021/03/31 04:59:36;;;;;;;11.63;5.07;;;10.40;99.90;;;;;;4950543;28;20240;-67
2021/03/31 05:02:04;;;;;;;10.30;4.67;;;10.40;99.90;;;;;;4959435;28;20229;-69
2021/03/31 05:04:30;;;;;;;11.57;5.63;;;10.30;99.90;;;;;;4961401;28;20288;-67
2021/03/31 05:06:57;;;;;;;10.80;6.00;;;10.30;99.90;;;;;;4960484;28;20228;-69
2021/03/31 05:09:23;;;;;;;12.70;6.90;;;10.40;99.90;;;;;;4960806;28;20200;-68
2021/03/31 05:11:50;;;;;;;11.90;6.70;;;10.30;99.90;;;;;;4952066;28;20204;-71
2021/03/31 05:14:16;;;;;;;10.07;5.50;;;10.30;99.90;;;;;;4959571;28;20215;-68
2021/03/31 05:16:43;;;;;;;6.93;4.80;;;10.30;99.90;;;;;;4972824;28;20229;-68
2021/03/31 05:19:10;;;;;;;7.40;4.33;;;10.20;99.90;;;;;;4972198;28;20343;-68
2021/03/31 05:21:36;;;;;;;8.00;5.00;;;10.30;99.90;;;;;;4958496;28;20214;-67
2021/03/31 05:24:04;;;;;;;9.40;4.57;;;10.20;99.90;;;;;;4972249;28;20278;-67
2021/03/31 05:26:30;;;;;;;8.30;4.67;;;10.30;99.90;;;;;;4963090;28;20213;-68
2021/03/31 05:28:57;;;;;;;6.03;4.07;;;10.30;99.90;;;;;;4964312;28;20274;-68
2021/03/31 05:31:23;;;;;;;5.20;4.13;;;10.20;99.90;;;;;;4966462;28;20277;-67
2021/03/31 05:33:50;;;;;;;5.47;3.73;;;10.20;99.90;;;;;;4970653;28;20651;-67
2021/03/31 05:36:17;;;;;;;6.23;4.00;;;10.20;99.90;;;;;;4967881;28;20686;-67
2021/03/31 05:38:44;;;;;;;6.10;3.77;;;10.10;99.90;;;;;;4954325;28;20203;-68
2021/03/31 05:41:11;;;;;;;5.47;3.57;;;10.30;99.90;;;;;;4964804;28;20304;-68
2021/03/31 05:43:38;;;;;;;5.50;3.90;;;10.40;99.90;;;;;;4968503;28;20199;-68
2021/03/31 05:46:07;;;;;;;5.07;3.97;;;10.40;99.90;;;;;;4951271;28;20194;-67
2021/03/31 05:48:34;;;;;;;4.50;3.53;;;10.40;99.90;;;;;;4967287;28;20207;-68
2021/03/31 05:51:00;;;;;;;4.40;3.20;;;10.40;99.90;;;;;;4963192;28;20221;-68
2021/03/31 05:53:28;;;;;;;4.30;3.27;;;10.50;99.90;;;;;;4965606;28;20204;-68
2021/03/31 05:55:54;;;;;;;5.07;4.10;;;10.60;99.90;;;;;;4961851;28;20717;-67
2021/03/31 05:58:21;;;;;;;5.67;3.67;;;10.60;99.90;;;;;;4964442;28;20197;-68
2021/03/31 06:00:49;;;;;;;7.10;3.77;;;10.70;99.90;;;;;;4954928;28;20193;-69
2021/03/31 06:03:15;;;;;;;6.10;4.50;;;10.80;99.90;;;;;;4962129;28;20288;-68
2021/03/31 06:05:42;;;;;;;7.80;4.30;;;10.80;99.90;;;;;;4957642;28;20193;-68
2021/03/31 06:08:09;;;;;;;4.13;3.33;;;11.00;99.90;;;;;;4960617;28;20200;-68
2021/03/31 06:10:38;;;;;;;4.77;3.60;;;11.20;99.90;;;;;;4957112;28;20302;-68
2021/03/31 06:13:06;;;;;;;6.40;4.20;;;11.40;99.90;;;;;;4949026;28;20305;-69
2021/03/31 06:15:39;;;;;;;7.37;3.83;;;11.80;99.90;;;;;;4973025;28;20201;-69
2021/03/31 06:18:12;;;;;;;5.80;3.87;;;12.20;99.90;;;;;;4971660;28;20200;-68
2021/03/31 06:20:54;;;;;;;6.27;3.73;;;12.50;99.90;;;;;;4970934;28;20768;-68
2021/03/31 06:23:36;;;;;;;5.10;3.00;;;12.80;99.90;;;;;;4970739;28;20259;-68
2021/03/31 06:26:17;;;;;;;5.77;3.70;;;13.10;99.90;;;;;;4967683;28;20243;-69
2021/03/31 06:28:44;;;;;;;4.87;3.37;;;13.40;99.90;;;;;;4962811;28;20184;-70
2021/03/31 06:31:14;;;;;;;7.93;3.40;;;13.70;99.90;;;;;;4966811;28;20630;-68
2021/03/31 06:33:42;;;;;;;6.23;3.60;;;14.10;99.90;;;;;;4968481;28;20211;-68
2021/03/31 06:36:10;;;;;;;5.80;3.47;;;14.50;99.90;;;;;;4961698;28;20206;-69
2021/03/31 06:38:39;;;;;;;3.63;3.00;;;14.90;99.90;;;;;;4967973;28;20213;-69
2021/03/31 06:41:16;;;;;;;5.10;3.43;;;15.40;99.90;;;;;;4959990;28;20210;-67
2021/03/31 06:43:59;;;;;;;5.77;3.30;;;15.90;99.90;;;;;;4965941;28;20681;-68
2021/03/31 06:46:36;;;;;;;3.13;2.73;;;16.40;99.90;;;;;;4965076;28;20300;-68
2021/03/31 06:49:04;;;;;;;7.00;3.17;;;16.90;99.90;;;;;;4961817;28;20283;-68
2021/03/31 06:51:32;;;;;;;3.47;2.30;;;17.50;99.90;;;;;;4941146;28;20234;-69
2021/03/31 06:54:12;;;;;;;4.43;2.10;;;18.10;99.90;;;;;;4953701;28;20197;-69
2021/03/31 06:56:39;;;;;;;4.07;2.00;;;18.60;99.90;;;;;;4946953;28;20226;-69
2021/03/31 06:59:06;;;;;;;2.57;2.37;;;19.30;99.90;;;;;;4955054;28;20666;-69
2021/03/31 07:01:33;;;;;;;3.50;2.27;;;19.90;99.90;;;;;;4938808;28;20191;-68
2021/03/31 07:04:02;;;;;;;5.70;2.50;;;20.30;98.90;;;;;;4956898;28;20217;-68
2021/03/31 07:06:29;;;;;;;4.90;2.17;;;20.80;97.10;;;;;;4952249;28;20192;-70
2021/03/31 07:08:55;;;;;;;2.92;2.17;;;21.20;95.10;;;;;;4952125;28;20195;-69
2021/03/31 07:11:41;;;;;;;4.97;2.15;;;21.60;93.80;;;;;;4942904;28;20565;-69
2021/03/31 07:14:10;;;;;;;4.13;2.03;;;22.00;92.10;;;;;;4955730;28;20220;-67
2021/03/31 07:16:37;;;;;;;2.30;2.10;;;22.40;90.40;;;;;;4956777;28;20504;-66
2021/03/31 07:19:05;;;;;;;4.28;1.83;;;22.90;88.20;;;;;;4939253;28;20196;-67
2021/03/31 07:21:32;;;;;;;2.28;2.17;;;23.60;83.40;;;;;;4941946;28;20197;-69
2021/03/31 07:24:00;;;;;;;2.20;2.00;;;24.50;78.60;;;;;;4951284;28;20194;-67
2021/03/31 07:26:28;;;;;;;3.13;2.00;;;25.70;74.00;;;;;;4943261;28;20207;-68
2021/03/31 07:28:57;;;;;;;2.22;2.00;;;27.00;68.10;;;;;;4945067;28;20279;-67
2021/03/31 07:31:28;;;;;;;2.00;1.80;;;28.20;62.80;;;;;;4950955;28;20319;-67
2021/03/31 07:34:17;;;;;;;3.95;2.25;;;29.60;58.60;;;;;;4954757;28;20202;-68
2021/03/31 07:36:45;;;;;;;3.72;2.35;;;31.00;54.70;;;;;;4948891;28;20209;-68
2021/03/31 07:39:13;;;;;;;2.30;2.08;;;32.20;52.10;;;;;;4949460;28;20211;-68
2021/03/31 07:41:41;;;;;;;2.40;2.15;;;33.20;49.10;;;;;;4953555;28;20252;-68
2021/03/31 07:44:13;;;;;;;2.58;1.77;;;34.20;46.70;;;;;;4948610;28;20233;-68
2021/03/31 07:46:42;;;;;;;3.83;2.30;;;35.10;44.50;;;;;;4941844;28;20273;-67
2021/03/31 07:49:10;;;;;;;3.15;2.45;;;36.00;42.00;;;;;;4963079;28;20667;-67
2021/03/31 07:51:36;;;;;;;2.80;2.60;;;36.80;39.30;;;;;;4951297;28;20276;-68
2021/03/31 07:54:05;;;;;;;2.53;1.88;;;37.50;36.90;;;;;;4957419;28;20705;-67
2021/03/31 07:56:36;;;;;;;4.60;2.63;;;38.20;36.30;;;;;;4961704;28;20220;-68
2021/03/31 07:59:15;;;;;;;1.98;1.88;;;39.10;34.40;;;;;;4955987;28;20197;-67
2021/03/31 08:01:45;;;;;;;2.47;2.28;;;40.00;33.10;;;;;;4967229;28;20201;-66
2021/03/31 08:04:12;;;;;;;3.47;2.95;;;41.00;32.20;;;;;;4957158;28;20200;-67
2021/03/31 08:06:40;;;;;;;4.30;2.97;;;41.80;30.60;;;;;;4957788;28;20682;-67
2021/03/31 08:09:08;;;;;;;2.60;2.40;;;42.70;30.00;;;;;;4964355;28;20308;-67
2021/03/31 08:12:01;;;;;;;4.38;2.53;;;43.30;29.10;;;;;;4956661;28;20277;-67
2021/03/31 08:14:41;;;;;;;3.90;2.53;;;44.00;28.60;;;;;;4958592;28;20363;-67
2021/03/31 08:17:09;;;;;;;3.78;2.65;;;44.80;27.90;;;;;;4952317;29;20350;-68
2021/03/31 08:19:39;;;;;;;7.32;3.05;;;45.50;27.30;;;;;;4950544;28;20286;-67
2021/03/31 08:22:24;;;;;;;3.63;2.65;;;46.20;26.80;;;;;;4959681;28;20205;-68
2021/03/31 08:24:52;;;;;;;3.50;2.97;;;46.80;26.40;;;;;;4970572;28;20203;-68
2021/03/31 08:27:19;;;;;;;2.85;2.65;;;47.40;25.30;;;;;;4956172;28;20220;-68
2021/03/31 08:29:51;;;;;;;2.95;2.72;;;47.80;24.90;;;;;;4963968;28;20639;-68
2021/03/31 08:32:19;;;;;;;3.45;3.15;;;48.10;24.10;;;;;;4959481;28;20232;-68
2021/03/31 08:34:46;;;;;;;3.10;2.90;;;48.50;23.60;;;;;;4962933;28;20525;-68
2021/03/31 08:37:28;;;;;;;2.88;2.70;;;48.90;23.10;;;;;;4945940;28;20326;-68
2021/03/31 08:40:00;;;;;;;6.28;3.33;;;49.10;22.50;;;;;;4944616;29;20289;-67
2021/03/31 08:42:27;;;;;;;3.47;2.65;;;49.50;21.60;;;;;;4960990;28;20211;-68
2021/03/31 08:44:59;;;;;;;2.90;2.70;;;49.80;22.00;;;;;;4954448;28;20806;-67
2021/03/31 08:47:32;;;;;;;4.97;3.25;;;50.00;21.00;;;;;;4946698;28;20664;-67
2021/03/31 08:50:00;;;;;;;3.97;2.70;;;50.30;20.30;;;;;;4961511;28;20247;-68
2021/03/31 08:52:34;;;;;;;2.75;2.65;;;50.40;19.50;;;;;;4953399;28;20200;-68
2021/03/31 08:55:03;;;;;;;14.40;3.28;;;50.40;19.30;;;;;;4968127;28;20261;-67
2021/03/31 08:57:30;;;;;;;2.72;2.60;;;50.50;18.70;;;;;;4965483;28;20465;-67
2021/03/31 08:59:59;;;;;;;3.00;2.80;;;50.40;18.60;;;;;;4964923;28;20417;-69
2021/03/31 09:02:28;;;;;;;3.00;2.80;;;50.50;18.40;;;;;;4959741;28;20926;-67
2021/03/31 09:04:57;;;;;;;2.80;2.70;;;50.30;17.80;;;;;;4962792;28;20204;-67
2021/03/31 09:07:24;;;;;;;6.18;2.90;;;50.60;18.20;;;;;;4966709;28;20223;-66
2021/03/31 09:09:50;;;;;;;3.25;3.03;;;51.10;18.10;;;;;;4966996;28;20274;-68
2021/03/31 09:12:18;;;;;;;3.30;3.10;;;51.30;17.70;;;;;;4950631;28;20281;-66
2021/03/31 09:14:47;;;;;;;3.05;2.88;;;51.50;17.20;;;;;;4968601;28;20350;-68
2021/03/31 09:17:19;;;;;;;3.10;2.90;;;51.60;17.50;;;;;;4953408;28;20288;-67
2021/03/31 09:19:47;;;;;;;5.03;3.10;;;51.80;17.10;;;;;;4961629;28;20774;-67
2021/03/31 09:22:15;;;;;;;2.70;2.50;;;52.20;17.10;;;;;;4949346;28;20192;-68
2021/03/31 09:24:43;;;;;;;2.90;2.70;;;52.40;16.80;;;;;;4955950;28;20200;-67
2021/03/31 09:27:12;;;;;;;3.25;3.05;;;52.70;16.80;;;;;;4960794;28;20241;-68
2021/03/31 09:29:42;;;;;;;3.08;2.88;;;52.90;17.30;;;;;;4950451;28;20195;-68
2021/03/31 09:32:11;;;;;;;4.80;2.97;;;52.90;16.60;;;;;;4957182;28;20326;-67
2021/03/31 09:34:38;;;;;;;4.25;3.03;;;53.00;17.30;;;;;;4963319;28;20227;-67
2021/03/31 09:37:07;;;;;;;3.58;3.38;;;53.10;16.60;;;;;;4955297;28;20191;-67
2021/03/31 09:39:45;;;;;;;4.32;3.45;;;53.30;16.60;;;;;;4950962;28;20216;-68
2021/03/31 09:42:16;;;;;;;4.50;3.38;;;53.30;15.70;;;;;;4957841;28;20239;-68
2021/03/31 09:44:43;;;;;;;4.53;3.25;;;53.10;15.80;;;;;;4948667;28;20573;-68
2021/03/31 09:47:10;;;;;;;3.50;3.30;;;53.00;15.30;;;;;;4946114;28;20279;-66
2021/03/31 09:49:38;;;;;;;3.17;2.97;;;52.80;15.60;;;;;;4954150;28;20272;-66
2021/03/31 09:52:05;;;;;;;3.15;2.95;;;52.70;15.60;;;;;;4953910;28;20616;-67
2021/03/31 09:54:32;;;;;;;3.45;3.15;;;53.00;15.70;;;;;;4957328;28;20203;-67
2021/03/31 09:57:00;;;;;;;3.80;3.58;;;53.10;15.80;;;;;;4943731;28;20284;-66
2021/03/31 09:59:27;;;;;;;3.60;3.40;;;53.40;15.70;;;;;;4961167;28;20251;-67
2021/03/31 10:01:54;;;;;;;4.72;3.50;;;53.50;15.60;;;;;;4945516;28;20288;-67
2021/03/31 10:04:21;;;;;;;3.20;3.10;;;53.70;15.60;;;;;;4961716;28;20197;-67
2021/03/31 10:07:15;;;;;;;3.30;3.00;;;53.80;15.50;;;;;;4967893;28;20215;-67
2021/03/31 10:09:43;;;;;;;3.47;3.17;;;53.80;15.30;;;;;;4957385;28;20229;-68
2021/03/31 10:12:11;;;;;;;3.30;3.10;;;53.80;15.20;;;;;;4950001;28;20224;-66
2021/03/31 10:14:49;;;;;;;2.97;2.88;;;53.70;15.10;;;;;;4949874;28;20237;-67
2021/03/31 10:17:18;;;;;;;3.53;3.33;;;53.60;15.10;;;;;;4945158;28;20543;-67
2021/03/31 10:19:45;;;;;;;3.33;3.20;;;53.70;14.80;;;;;;4957720;28;20216;-67
2021/03/31 10:22:13;;;;;;;3.50;3.30;;;53.40;14.60;;;;;;4955681;28;20228;-67
2021/03/31 10:24:41;;;;;;;3.40;3.10;;;53.30;14.90;;;;;;4962537;28;20323;-68
2021/03/31 10:27:09;;;;;;;3.22;3.10;;;53.30;14.80;;;;;;4952943;28;20240;-66
2021/03/31 10:29:43;;;;;;;3.20;3.10;;;53.40;14.90;;;;;;4951977;28;20243;-67
2021/03/31 10:32:10;;;;;;;3.40;3.30;;;53.30;14.30;;;;;;4953745;28;20636;-67
2021/03/31 10:34:38;;;;;;;3.70;3.50;;;53.10;14.40;;;;;;4959824;28;20192;-67
2021/03/31 10:37:10;;;;;;;3.25;3.05;;;52.90;14.10;;;;;;4959180;28;20251;-66
2021/03/31 10:48:38;;;;;;;3.15;2.92;;;52.80;14.50;;;;;;4956220;28;20196;-67
2021/03/31 10:51:12;;;;;;;3.25;3.05;;;52.80;14.60;;;;;;4951772;28;20259;-66
2021/03/31 10:53:42;;;;;;;3.38;3.17;;;52.80;14.70;;;;;;4953019;28;20660;-69
2021/03/31 10:56:10;;;;;;;3.70;3.40;;;52.80;14.40;;;;;;4948788;28;20208;-68
2021/03/31 10:58:36;;;;;;;4.75;3.60;;;52.70;14.40;;;;;;4965828;28;20196;-68
2021/03/31 11:01:03;;;;;;;5.25;3.58;;;52.60;14.30;;;;;;4956094;28;20296;-70
2021/03/31 11:03:30;;;;;;;3.33;3.05;;;52.40;14.20;;;;;;4963100;28;20269;-67
2021/03/31 11:05:56;;;;;;;2.95;2.85;;;52.10;13.90;;;;;;4955826;28;20681;-67
2021/03/31 11:08:23;;;;;;;3.05;2.85;;;51.60;14.10;;;;;;4960031;28;20224;-68
2021/03/31 11:10:49;;;;;;;3.45;3.25;;;51.40;14.10;;;;;;4954922;28;20665;-67
2021/03/31 11:13:17;;;;;;;3.40;3.20;;;51.50;14.10;;;;;;4959405;28;20196;-66
2021/03/31 11:15:43;;;;;;;3.50;3.30;;;51.30;14.10;;;;;;4949776;28;20532;-67
2021/03/31 11:18:16;;;;;;;22.83;6.68;;;51.30;14.30;;;;;;4939170;28;20303;-67
2021/03/31 11:20:56;;;;;;;11.75;4.60;;;51.20;14.30;;;;;;4942592;28;20620;-67
2021/03/31 11:26:07;;;;;;;3.72;3.30;;;50.70;14.60;;;;;;4936260;28;20201;-66
2021/03/31 11:28:36;;;;;;;3.50;3.30;;;50.20;14.40;;;;;;4948424;28;20202;-66
2021/03/31 11:31:03;;;;;;;3.13;3.03;;;49.80;14.30;;;;;;4938214;28;20277;-67
2021/03/31 11:33:30;;;;;;;3.22;3.03;;;49.30;14.30;;;;;;4944555;28;20200;-66
2021/03/31 11:35:56;;;;;;;3.13;2.92;;;48.90;14.40;;;;;;4953060;28;20278;-66
2021/03/31 11:38:23;;;;;;;3.30;3.10;;;48.60;14.50;;;;;;4955981;28;20209;-67
2021/03/31 11:40:50;;;;;;;3.47;2.90;;;48.30;14.50;;;;;;4953266;28;20636;-67
2021/03/31 11:43:17;;;;;;;3.13;2.80;;;48.00;14.60;;;;;;4945868;28;20225;-67
2021/03/31 11:45:46;;;;;;;3.60;3.40;;;47.70;14.80;;;;;;4964664;28;20250;-67
2021/03/31 11:48:13;;;;;;;3.90;3.60;;;47.40;15.20;;;;;;4951347;28;20557;-67
2021/03/31 11:50:39;;;;;;;3.45;3.20;;;47.10;14.60;;;;;;4944902;28;20284;-66
2021/03/31 11:53:06;;;;;;;4.45;3.30;;;46.70;14.80;;;;;;4952487;28;20290;-66
2021/03/31 11:55:33;;;;;;;4.00;2.70;;;46.20;14.60;;;;;;4966826;28;20516;-67
2021/03/31 11:57:59;;;;;;;3.17;3.00;;;45.80;14.60;;;;;;4965977;28;20209;-66
2021/03/31 12:00:26;;;;;;;14.20;4.95;;;45.50;14.70;;;;;;4955429;28;20275;-67
2021/03/31 12:02:53;;;;;;;8.95;3.90;;;44.80;14.30;;;;;;4952228;28;20309;-66
2021/03/31 12:05:20;;;;;;;2.88;2.75;;;44.00;14.50;;;;;;4964749;28;20319;-66
2021/03/31 12:07:47;;;;;;;2.80;2.70;;;43.10;14.50;;;;;;4951883;28;20208;-66
2021/03/31 12:10:14;;;;;;;2.47;2.38;;;42.20;14.90;;;;;;4968274;28;20866;-67
2021/03/31 12:12:42;;;;;;;2.50;2.40;;;41.30;15.10;;;;;;4950780;28;20283;-67
2021/03/31 12:15:11;;;;;;;2.65;2.50;;;40.50;15.40;;;;;;4963140;28;20201;-66
2021/03/31 12:17:38;;;;;;;3.10;2.35;;;39.60;15.60;;;;;;4944359;28;20193;-66
2021/03/31 12:20:08;;;;;;;2.28;2.17;;;38.90;15.90;;;;;;4951159;28;20321;-66
2021/03/31 12:22:34;;;;;;;3.88;2.33;;;38.20;16.10;;;;;;4961025;28;20200;-66
2021/03/31 12:25:01;;;;;;;1.85;1.80;;;37.50;16.10;;;;;;4955207;28;20230;-67
2021/03/31 12:27:29;;;;;;;2.20;2.07;;;36.70;16.10;;;;;;4938171;28;20454;-68
2021/03/31 12:29:55;;;;;;;2.28;2.08;;;36.10;16.10;;;;;;4960424;28;20666;-66
2021/03/31 12:32:22;;;;;;;1.95;1.85;;;35.50;16.10;;;;;;4944390;28;20363;-66
2021/03/31 12:34:48;;;;;;;1.83;1.73;;;34.90;16.20;;;;;;4961700;28;20215;-66
2021/03/31 12:37:16;;;;;;;1.90;1.80;;;34.40;16.30;;;;;;4950016;28;20190;-67
2021/03/31 12:39:42;;;;;;;1.50;1.50;;;33.90;16.50;;;;;;4949308;28;20198;-66
2021/03/31 12:42:09;;;;;;;2.45;1.60;;;33.40;16.60;;;;;;4954016;28;20718;-66
2021/03/31 12:44:35;;;;;;;1.70;1.60;;;33.00;16.80;;;;;;4941983;28;20995;-66
2021/03/31 12:47:03;;;;;;;1.73;1.63;;;32.80;17.00;;;;;;4953181;28;20299;-67
2021/03/31 12:49:30;;;;;;;6.18;2.17;;;32.40;17.00;;;;;;4952371;28;20192;-66
2021/03/31 12:52:00;;;;;;;1.65;1.55;;;32.00;17.10;;;;;;4952200;28;20277;-66
2021/03/31 12:54:31;;;;;;;1.70;1.60;;;31.70;17.30;;;;;;4960773;28;20646;-66
2021/03/31 12:56:58;;;;;;;4.22;1.70;;;31.30;17.30;;;;;;4947699;28;20192;-65
2021/03/31 12:59:24;;;;;;;1.70;1.52;;;30.90;17.70;;;;;;4965110;28;20207;-66
2021/03/31 13:01:51;;;;;;;1.70;1.60;;;30.50;17.20;;;;;;4942501;28;20201;-66
2021/03/31 13:04:18;;;;;;;1.65;1.55;;;30.20;17.40;;;;;;4954565;28;20660;-66
2021/03/31 13:06:45;;;;;;;2.75;1.63;;;29.80;17.50;;;;;;4962508;28;20209;-66